Time;durP1;ratioP1;P1;durP2;ratioP2;P2;SDS_P1;SDS_P2;PMS_P1;PMS_P2;Temp;Humidity;BMP_temperature;BMP_pressure;BME280_temperature;BME280_humidity;BME280_pressure;Samples;Min_cycle;Max_cycle;Signal;HPM_P1;HPM_P2
2021/12/09 00:01:51;;;;;;;1.95;1.40;;;;;;;21.90;33.71;98120.20;1897660;75;28026;-62
2021/12/09 00:04:41;;;;;;;1.60;1.50;;;;;;;21.95;33.67;98118.05;1864977;76;28574;-61
2021/12/09 00:07:30;;;;;;;1.40;1.40;;;;;;;21.97;33.68;98119.97;1881706;76;28016;-62
2021/12/09 00:10:18;;;;;;;1.45;1.42;;;;;;;21.96;33.71;98121.08;1903636;74;28196;-62
2021/12/09 00:13:08;;;;;;;1.40;1.40;;;;;;;21.97;33.73;98119.43;1895791;75;28021;-62
2021/12/09 00:15:58;;;;;;;1.50;1.50;;;;;;;21.98;33.71;98114.80;1914578;74;28159;-61
2021/12/09 00:18:46;;;;;;;1.60;1.50;;;;;;;22.01;33.71;98120.55;1919017;74;28199;-60
2021/12/09 00:21:35;;;;;;;1.40;1.40;;;;;;;22.02;33.73;98117.27;1887635;75;28148;-61
2021/12/09 00:24:25;;;;;;;1.70;1.60;;;;;;;22.03;33.71;98118.94;1877956;75;28264;-61
2021/12/09 00:27:13;;;;;;;1.67;1.57;;;;;;;22.06;33.66;98123.02;1883027;75;28261;-61
2021/12/09 00:30:02;;;;;;;1.60;1.50;;;;;;;22.06;33.71;98124.39;1889173;75;28223;-62
2021/12/09 00:32:51;;;;;;;1.47;1.37;;;;;;;22.07;33.73;98129.61;1921682;74;28232;-62
2021/12/09 00:35:56;;;;;;;1.60;1.50;;;;;;;22.09;33.68;98125.23;1901953;74;28194;-62
2021/12/09 00:38:41;;;;;;;1.60;1.50;;;;;;;22.07;33.72;98129.61;1899147;75;28191;-62
2021/12/09 00:41:28;;;;;;;1.60;1.50;;;;;;;22.09;33.72;98134.81;1876860;75;28170;-62
2021/12/09 00:44:16;;;;;;;1.52;1.42;;;;;;;22.10;33.72;98137.27;1884572;75;28147;-62
2021/12/09 00:47:05;;;;;;;1.35;1.32;;;;;;;22.11;33.69;98138.93;1886867;75;28103;-62
2021/12/09 00:49:55;;;;;;;1.50;1.50;;;;;;;22.16;33.70;98143.61;1882721;75;28546;-62
2021/12/09 00:52:44;;;;;;;1.65;1.47;;;;;;;22.15;33.68;98152.34;1867301;75;28293;-62
2021/12/09 00:55:32;;;;;;;1.50;1.40;;;;;;;22.16;33.71;98139.50;1877754;75;28319;-61
2021/12/09 00:58:21;;;;;;;1.50;1.50;;;;;;;22.16;33.68;98143.06;1865015;76;28099;-61
2021/12/09 01:01:12;;;;;;;1.40;1.40;;;;;;;22.18;33.67;98151.00;1878658;75;28177;-61
2021/12/09 01:04:01;;;;;;;1.52;1.42;;;;;;;22.20;33.63;98156.48;1876204;75;28193;-62
2021/12/09 01:06:51;;;;;;;1.70;1.60;;;;;;;22.19;33.66;98150.75;1909934;73;28156;-61
2021/12/09 01:09:40;;;;;;;1.62;1.40;;;;;;;22.23;33.64;98152.41;1916176;74;28137;-62
2021/12/09 01:12:29;;;;;;;1.50;1.40;;;;;;;22.24;33.63;98159.53;1917807;74;28099;-62
2021/12/09 01:15:20;;;;;;;1.50;1.40;;;;;;;22.25;33.63;98161.16;1890522;75;28154;-62
2021/12/09 01:18:09;;;;;;;1.30;1.30;;;;;;;22.23;33.64;98176.48;1868119;75;28198;-60
2021/12/09 01:20:58;;;;;;;1.30;1.30;;;;;;;22.25;33.65;98171.56;1897561;75;28167;-61
2021/12/09 01:23:48;;;;;;;1.40;1.40;;;;;;;22.26;33.60;98181.97;1899141;75;31085;-61
2021/12/09 01:26:39;;;;;;;1.35;1.30;;;;;;;22.29;33.59;98175.41;1909790;73;28140;-61
2021/12/09 01:29:52;;;;;;;1.67;1.57;;;;;;;22.33;33.54;98194.87;1874938;75;28632;-62
2021/12/09 01:32:26;;;;;;;1.47;1.40;;;;;;;22.32;33.57;98197.31;1943754;73;28016;-62
2021/12/09 01:35:10;;;;;;;1.52;1.42;;;;;;;22.32;33.55;98190.48;1950217;72;36137;-61
2021/12/09 01:38:02;;;;;;;2.05;1.40;;;;;;;22.34;33.55;98197.88;1946469;72;28022;-62
2021/12/09 01:40:50;;;;;;;1.40;1.40;;;;;;;22.33;33.57;98201.72;1960035;72;27926;-62
2021/12/09 01:43:39;;;;;;;1.20;1.20;;;;;;;22.35;33.52;98188.05;1953482;72;28018;-61
2021/12/09 01:46:27;;;;;;;1.40;1.30;;;;;;;22.35;33.53;98188.59;1951759;72;28177;-61
2021/12/09 01:49:16;;;;;;;1.40;1.40;;;;;;;22.36;33.53;98197.89;1939047;72;28078;-62
2021/12/09 01:52:07;;;;;;;1.50;1.40;;;;;;;22.36;33.56;98199.80;1960267;72;27995;-62
2021/12/09 01:54:55;;;;;;;1.47;1.40;;;;;;;22.36;33.56;98202.00;1969680;72;27922;-61
2021/12/09 01:57:50;;;;;;;1.47;1.40;;;;;;;22.37;33.55;98211.03;1935241;73;28130;-61
2021/12/09 02:00:38;;;;;;;1.20;1.20;;;;;;;22.38;33.50;98215.44;1947132;72;28046;-61
2021/12/09 02:03:27;;;;;;;1.55;1.45;;;;;;;22.37;33.54;98213.23;1935276;73;27952;-61
2021/12/09 02:06:19;;;;;;;1.50;1.40;;;;;;;22.37;33.54;98212.40;1935101;73;27937;-61
2021/12/09 02:09:12;;;;;;;1.40;1.40;;;;;;;22.39;33.59;98219.27;1930031;73;28077;-61
2021/12/09 02:12:03;;;;;;;1.22;1.20;;;;;;;22.39;33.57;98212.42;1935164;73;27994;-62
2021/12/09 02:14:53;;;;;;;1.42;1.32;;;;;;;22.38;33.60;98208.59;1942434;72;28036;-61
2021/12/09 02:17:41;;;;;;;2.22;1.40;;;;;;;22.37;33.60;98211.86;1935292;73;28137;-61
2021/12/09 02:20:34;;;;;;;1.40;1.30;;;;;;;22.39;33.62;98214.33;1948502;72;28011;-61
2021/12/09 02:23:23;;;;;;;1.30;1.30;;;;;;;22.41;33.60;98221.72;1937885;72;28481;-60
2021/12/09 02:26:12;;;;;;;1.40;1.40;;;;;;;22.40;33.61;98225.56;1935181;73;27927;-61
2021/12/09 02:29:01;;;;;;;1.22;1.22;;;;;;;22.42;33.61;98221.48;1887911;75;28159;-61
2021/12/09 02:31:56;;;;;;;1.67;1.57;;;;;;;22.44;33.59;98224.77;1955758;72;27950;-61
2021/12/09 02:34:39;;;;;;;1.50;1.40;;;;;;;22.42;33.58;98216.00;1938730;72;28035;-61
2021/12/09 02:37:28;;;;;;;1.30;1.30;;;;;;;22.43;33.59;98217.64;1922241;74;28024;-62
2021/12/09 02:40:17;;;;;;;1.50;1.40;;;;;;;22.43;33.60;98225.84;1894413;75;28173;-63
2021/12/09 02:43:08;;;;;;;1.35;1.35;;;;;;;22.46;33.61;98225.86;1866984;76;28240;-61
2021/12/09 02:45:59;;;;;;;1.47;1.37;;;;;;;22.43;33.60;98226.38;1888220;75;28193;-60
2021/12/09 02:48:49;;;;;;;1.40;1.35;;;;;;;22.46;33.59;98220.39;1896139;75;28185;-62
2021/12/09 02:51:38;;;;;;;1.20;1.20;;;;;;;22.45;33.57;98229.14;1881537;76;28604;-61
2021/12/09 02:54:29;;;;;;;1.30;1.30;;;;;;;22.47;33.58;98227.53;1856709;77;28231;-61
2021/12/09 02:57:17;;;;;;;1.50;1.40;;;;;;;22.47;33.57;98226.16;1885559;75;28140;-61
2021/12/09 03:00:10;;;;;;;1.50;1.40;;;;;;;22.45;33.61;98221.50;1871429;75;28207;-61
2021/12/09 03:03:00;;;;;;;1.30;1.30;;;;;;;22.47;33.58;98226.16;1881938;75;28205;-61
2021/12/09 03:05:49;;;;;;;1.50;1.40;;;;;;;22.46;33.61;98224.50;1919324;74;28196;-61
2021/12/09 03:08:38;;;;;;;1.30;1.30;;;;;;;22.47;33.93;98229.72;1893340;75;28250;-62
2021/12/09 03:11:26;;;;;;;1.35;1.25;;;;;;;22.47;33.93;98229.72;1892888;75;28117;-62
2021/12/09 03:14:15;;;;;;;1.25;1.25;;;;;;;22.46;33.59;98229.97;1883466;75;28296;-62
2021/12/09 03:17:03;;;;;;;1.37;1.30;;;;;;;22.46;33.59;98233.53;1886844;75;28097;-61
2021/12/09 03:19:53;;;;;;;1.40;1.30;;;;;;;22.49;33.57;98225.34;1888215;75;28031;-62
2021/12/09 03:22:43;;;;;;;1.20;1.20;;;;;;;22.49;33.56;98228.08;1932900;74;28020;-62
2021/12/09 03:25:32;;;;;;;1.30;1.30;;;;;;;22.49;33.55;98230.81;1899142;75;28119;-62
2021/12/09 03:28:21;;;;;;;1.40;1.30;;;;;;;22.51;33.52;98232.20;1884081;74;28038;-62
2021/12/09 03:31:09;;;;;;;1.20;1.20;;;;;;;22.51;33.52;98236.84;1913289;74;28004;-62
2021/12/09 03:33:58;;;;;;;1.40;1.40;;;;;;;22.48;33.56;98247.77;1887538;75;28212;-61
2021/12/09 03:36:50;;;;;;;1.30;1.30;;;;;;;22.50;33.56;98243.39;1901237;74;28051;-61
2021/12/09 03:39:40;;;;;;;1.20;1.20;;;;;;;22.50;33.54;98241.48;1864957;76;27814;-61
2021/12/09 03:42:32;;;;;;;1.20;1.20;;;;;;;22.50;33.55;98241.48;1888358;74;28162;-61
2021/12/09 03:45:20;;;;;;;1.20;1.20;;;;;;;22.51;33.53;98244.52;1910449;74;28048;-62
2021/12/09 03:48:08;;;;;;;1.30;1.30;;;;;;;22.50;33.54;98247.50;1884859;75;28098;-62
2021/12/09 03:50:58;;;;;;;1.20;1.20;;;;;;;22.51;33.54;98255.47;1935587;73;28123;-62
2021/12/09 03:53:48;;;;;;;1.25;1.25;;;;;;;22.50;33.54;98240.12;1935980;73;28210;-60
2021/12/09 03:56:38;;;;;;;1.20;1.20;;;;;;;22.51;33.55;98253.27;1923760;73;28151;-61
2021/12/09 03:59:28;;;;;;;1.10;1.10;;;;;;;22.50;33.57;98256.54;1914181;73;28119;-61
2021/12/09 04:02:17;;;;;;;1.20;1.20;;;;;;;22.50;33.59;98254.34;1924072;73;28081;-61
2021/12/09 04:05:07;;;;;;;1.23;1.20;;;;;;;22.50;33.60;98247.50;1927662;73;28095;-61
2021/12/09 04:07:56;;;;;;;1.20;1.20;;;;;;;22.46;33.60;98251.32;1913402;74;28699;-61
2021/12/09 04:10:46;;;;;;;1.35;1.25;;;;;;;22.48;33.59;98259.25;1927054;73;28124;-62
2021/12/09 04:13:34;;;;;;;1.15;1.15;;;;;;;22.49;33.60;98264.48;1937864;73;28149;-62
2021/12/09 04:16:23;;;;;;;1.30;1.20;;;;;;;22.48;33.62;98255.16;1913878;73;28136;-61
2021/12/09 04:19:13;;;;;;;1.40;1.30;;;;;;;22.51;33.57;98266.41;1913060;74;28187;-62
2021/12/09 04:22:03;;;;;;;1.25;1.25;;;;;;;22.49;33.60;98247.23;1919931;74;37881;-62
2021/12/09 04:24:53;;;;;;;1.10;1.10;;;;;;;22.49;33.65;98259.55;1945021;73;28082;-61
2021/12/09 04:27:42;;;;;;;1.20;1.20;;;;;;;22.51;33.60;98264.21;1946361;73;28102;-60
2021/12/09 04:30:32;;;;;;;1.20;1.20;;;;;;;22.49;33.60;98269.96;1913050;74;28146;-61
2021/12/09 04:33:20;;;;;;;1.10;1.10;;;;;;;22.49;33.60;98267.76;1913204;74;37607;-61
2021/12/09 04:36:10;;;;;;;1.20;1.20;;;;;;;22.50;33.60;98273.50;1931877;73;28259;-62
2021/12/09 04:38:59;;;;;;;1.13;1.13;;;;;;;22.50;33.61;98275.70;1935775;72;28139;-62
2021/12/09 04:41:47;;;;;;;1.07;1.07;;;;;;;22.49;33.60;98285.01;1991084;71;27884;-62
2021/12/09 04:44:36;;;;;;;1.00;1.00;;;;;;;22.50;33.59;98276.23;1967863;71;28035;-61
2021/12/09 04:47:25;;;;;;;1.10;1.10;;;;;;;22.49;33.58;98280.08;1943552;73;27912;-61
2021/12/09 04:50:14;;;;;;;1.20;1.20;;;;;;;22.50;33.57;98287.18;1943596;73;27938;-61
2021/12/09 04:53:05;;;;;;;1.10;1.10;;;;;;;22.51;33.63;98282.00;1943923;73;28131;-61
2021/12/09 04:55:55;;;;;;;1.10;1.10;;;;;;;22.50;33.57;98288.55;1953741;72;27991;-62
2021/12/09 04:58:44;;;;;;;1.00;1.00;;;;;;;22.52;33.59;98293.24;1951150;72;28035;-61
2021/12/09 05:01:34;;;;;;;1.00;1.00;;;;;;;22.50;33.60;98309.07;1975150;72;27917;-61
2021/12/09 05:04:23;;;;;;;1.15;1.15;;;;;;;22.51;33.58;98303.89;1959677;72;38275;-61
2021/12/09 05:07:11;;;;;;;1.00;1.00;;;;;;;22.49;33.56;98321.12;1977439;71;28041;-61
2021/12/09 05:09:59;;;;;;;1.10;1.10;;;;;;;22.49;33.57;98324.69;1952867;72;28043;-61
2021/12/09 05:12:47;;;;;;;0.90;0.90;;;;;;;22.49;33.60;98322.49;1943677;72;27961;-61
2021/12/09 05:15:35;;;;;;;1.00;1.00;;;;;;;22.51;33.61;98335.36;1944467;72;28062;-60
2021/12/09 05:18:26;;;;;;;1.05;1.05;;;;;;;22.46;33.62;98327.94;1941493;73;28589;-62
2021/12/09 05:21:17;;;;;;;1.02;1.02;;;;;;;22.50;33.61;98339.17;1964324;72;29962;-61
2021/12/09 05:24:07;;;;;;;1.00;1.00;;;;;;;22.47;33.66;98341.09;1943676;73;28042;-62
2021/12/09 05:26:56;;;;;;;1.00;1.00;;;;;;;22.49;33.65;98343.02;1943550;73;27987;-61
2021/12/09 05:29:53;;;;;;;0.90;0.90;;;;;;;22.51;33.62;98344.41;1944103;72;28162;-61
2021/12/09 05:32:36;;;;;;;1.00;1.00;;;;;;;22.51;33.61;98344.94;1943595;73;27929;-61
2021/12/09 05:35:24;;;;;;;0.93;0.93;;;;;;;22.51;33.64;98368.20;1958460;72;27915;-61
2021/12/09 05:38:13;;;;;;;1.10;1.10;;;;;;;22.49;33.62;98363.53;1955919;72;27952;-60
2021/12/09 05:41:03;;;;;;;1.02;1.02;;;;;;;22.51;33.61;98370.41;1962020;71;28159;-62
2021/12/09 05:43:53;;;;;;;0.80;0.80;;;;;;;22.51;33.60;98369.57;1956580;73;28394;-62
2021/12/09 05:46:44;;;;;;;1.70;0.80;;;;;;;22.51;33.59;98381.34;1956766;71;28056;-62
2021/12/09 05:49:35;;;;;;;1.10;1.00;;;;;;;22.47;33.59;98380.23;1964723;71;27941;-61
2021/12/09 05:52:23;;;;;;;0.98;0.98;;;;;;;22.51;33.60;98380.52;1989473;71;28091;-61
2021/12/09 05:55:11;;;;;;;1.10;1.10;;;;;;;22.52;33.54;98391.77;1979423;71;28001;-61
2021/12/09 05:58:00;;;;;;;0.80;0.80;;;;;;;22.52;33.54;98398.60;1968598;72;28454;-61
2021/12/09 06:00:50;;;;;;;0.90;0.90;;;;;;;22.53;33.51;98394.23;1970759;72;28115;-62
2021/12/09 06:03:40;;;;;;;0.90;0.90;;;;;;;22.52;33.51;98384.35;1956701;73;27949;-62
2021/12/09 06:06:28;;;;;;;1.25;1.00;;;;;;;22.53;33.52;98390.66;1978325;71;27924;-62
2021/12/09 06:09:17;;;;;;;0.80;0.80;;;;;;;22.50;33.53;98392.53;1956907;73;28026;-62
2021/12/09 06:12:07;;;;;;;0.80;0.80;;;;;;;22.51;33.51;98399.67;1989565;71;28005;-62
2021/12/09 06:14:55;;;;;;;1.03;0.90;;;;;;;22.48;33.54;98395.55;1965724;71;28290;-62
2021/12/09 06:17:46;;;;;;;0.90;0.90;;;;;;;22.51;33.52;98396.41;1977967;71;28026;-62
2021/12/09 06:20:36;;;;;;;1.00;1.00;;;;;;;22.51;33.51;98399.67;1971629;71;27908;-62
2021/12/09 06:23:25;;;;;;;0.90;0.90;;;;;;;22.51;33.50;98393.66;1959441;71;28122;-62
2021/12/09 06:26:14;;;;;;;0.88;0.88;;;;;;;22.53;33.48;98391.48;1956700;71;28140;-62
2021/12/09 06:29:07;;;;;;;0.82;0.82;;;;;;;22.54;33.49;98403.27;1977070;71;27961;-62
2021/12/09 06:31:55;;;;;;;0.90;0.90;;;;;;;22.52;33.48;98393.13;1955384;73;27900;-60
2021/12/09 06:34:43;;;;;;;0.90;0.90;;;;;;;22.52;33.44;98398.03;1983358;71;28097;-61
2021/12/09 06:37:38;;;;;;;0.90;0.90;;;;;;;22.52;33.38;98394.50;1989959;71;27879;-60
2021/12/09 06:40:25;;;;;;;0.80;0.80;;;;;;;22.52;33.33;98391.19;1951121;73;35056;-61
2021/12/09 06:43:16;;;;;;;1.05;0.80;;;;;;;22.51;33.33;98389.56;1943254;73;27973;-62
2021/12/09 06:46:07;;;;;;;0.80;0.80;;;;;;;22.52;33.29;98397.23;1956908;72;28043;-62
2021/12/09 06:48:55;;;;;;;1.20;0.80;;;;;;;22.50;33.30;98401.58;1943606;73;27991;-62
2021/12/09 06:51:43;;;;;;;2.40;1.00;;;;;;;22.49;33.32;98403.22;1962702;72;27952;-64
2021/12/09 06:54:32;;;;;;;1.70;0.93;;;;;;;22.47;33.22;98417.17;1966117;72;27995;-62
2021/12/09 06:57:22;;;;;;;1.92;1.10;;;;;;;22.40;33.19;98412.98;1971337;72;28225;-61
2021/12/09 07:00:14;;;;;;;2.10;1.00;;;;;;;22.42;33.13;98421.22;1944142;72;28335;-62
2021/12/09 07:03:02;;;;;;;1.60;1.40;;;;;;;22.41;33.13;98423.66;1960009;72;28003;-62
2021/12/09 07:05:53;;;;;;;1.00;1.00;;;;;;;22.37;33.14;98434.02;1943161;73;27975;-60
2021/12/09 07:08:50;;;;;;;1.10;1.00;;;;;;;22.36;33.20;98433.19;1943434;72;28020;-61
2021/12/09 07:11:33;;;;;;;1.20;0.90;;;;;;;22.35;33.26;98437.02;1873970;75;31147;-61
2021/12/09 07:14:23;;;;;;;2.02;1.10;;;;;;;22.37;33.27;98434.02;1880311;75;28230;-61
2021/12/09 07:17:13;;;;;;;1.17;1.00;;;;;;;22.34;33.33;98450.94;1923947;73;28023;-62
2021/12/09 07:20:06;;;;;;;1.10;1.00;;;;;;;22.34;33.38;98456.41;1910759;73;28039;-62
2021/12/09 07:22:55;;;;;;;1.40;1.30;;;;;;;22.31;33.42;98459.69;1954055;72;28000;-63
2021/12/09 07:25:44;;;;;;;1.30;1.20;;;;;;;22.30;33.47;98464.86;1964120;72;27983;-62
2021/12/09 07:28:33;;;;;;;1.05;1.05;;;;;;;22.30;33.49;98473.90;1952712;72;28056;-62
2021/12/09 07:31:24;;;;;;;0.88;0.80;;;;;;;22.26;33.61;98470.56;1983277;71;27968;-62
2021/12/09 07:34:13;;;;;;;1.50;1.10;;;;;;;22.28;33.63;98469.77;1953500;72;28041;-64
2021/12/09 07:37:04;;;;;;;2.25;1.20;;;;;;;22.23;33.71;98478.74;1959920;72;28594;-63
2021/12/09 07:39:52;;;;;;;1.10;1.00;;;;;;;22.24;33.74;98481.75;1955010;72;28089;-64
2021/12/09 07:42:40;;;;;;;2.03;1.00;;;;;;;22.23;33.86;98492.95;1949841;72;28105;-64
2021/12/09 07:45:29;;;;;;;3.75;1.00;;;;;;;22.22;34.07;98491.33;1954771;72;28004;-66
2021/12/09 07:48:19;;;;;;;1.22;0.93;;;;;;;22.23;34.14;98498.42;1960900;72;27964;-64
2021/12/09 07:51:08;;;;;;;3.30;0.90;;;;;;;22.24;34.29;98505.00;1966417;72;27918;-64
2021/12/09 07:53:59;;;;;;;1.90;1.13;;;;;;;22.21;34.48;98502.80;1972700;72;28058;-64
2021/12/09 07:56:47;;;;;;;1.37;1.20;;;;;;;22.27;34.43;98506.40;1942942;73;27995;-64
2021/12/09 07:59:35;;;;;;;2.60;0.98;;;;;;;22.34;34.38;98507.03;1953846;72;28003;-65
2021/12/09 08:02:24;;;;;;;3.00;0.90;;;;;;;22.33;34.35;98515.80;1955036;72;28048;-64
2021/12/09 08:05:14;;;;;;;3.05;1.10;;;;;;;22.33;34.35;98513.60;1950210;72;28095;-65
2021/12/09 08:08:04;;;;;;;2.00;1.40;;;;;;;22.32;34.40;98521.51;1943522;73;28091;-63
2021/12/09 08:10:53;;;;;;;1.20;1.10;;;;;;;22.30;34.43;98523.68;1943141;73;28125;-64
2021/12/09 08:13:41;;;;;;;1.30;1.20;;;;;;;22.28;34.51;98523.95;1967024;72;28201;-64
2021/12/09 08:16:33;;;;;;;2.35;1.10;;;;;;;22.23;34.56;98520.31;1943412;73;28001;-64
2021/12/09 08:19:20;;;;;;;2.10;1.30;;;;;;;22.24;34.51;98527.45;1943698;73;27950;-65
2021/12/09 08:22:08;;;;;;;2.35;1.10;;;;;;;22.23;34.57;98522.52;1978673;72;28339;-63
2021/12/09 08:24:58;;;;;;;1.30;1.07;;;;;;;22.24;34.53;98537.02;1957179;71;27912;-63
2021/12/09 08:27:47;;;;;;;2.00;1.20;;;;;;;22.21;34.63;98543.83;1977440;72;27937;-63
2021/12/09 08:30:38;;;;;;;2.40;1.22;;;;;;;22.21;34.67;98540.27;1959536;72;27926;-64
2021/12/09 08:33:27;;;;;;;1.67;1.10;;;;;;;22.20;34.60;98550.91;1943508;73;27971;-64
2021/12/09 08:36:16;;;;;;;1.55;1.30;;;;;;;22.18;34.57;98543.50;1969986;72;28108;-64
2021/12/09 08:39:06;;;;;;;2.13;1.60;;;;;;;22.19;34.59;98550.64;1954694;72;28046;-64
2021/12/09 08:41:54;;;;;;;3.10;1.70;;;;;;;22.16;34.54;98551.97;1958246;72;28730;-64
2021/12/09 08:44:43;;;;;;;2.73;1.73;;;;;;;22.17;34.59;98547.33;1931174;71;28513;-65
2021/12/09 08:47:31;;;;;;;2.05;1.70;;;;;;;22.15;34.58;98550.86;1937185;72;28076;-63
2021/12/09 08:50:22;;;;;;;3.70;2.20;;;;;;;22.18;34.53;98551.70;1941082;72;28027;-63
2021/12/09 08:53:14;;;;;;;1.75;1.65;;;;;;;22.17;34.51;98551.44;1945621;72;28097;-64
2021/12/09 08:56:04;;;;;;;2.20;1.80;;;;;;;22.17;34.48;98553.60;1941420;72;28083;-64
2021/12/09 08:58:53;;;;;;;3.43;2.27;;;;;;;22.17;34.54;98547.33;1944409;73;28469;-64
2021/12/09 09:01:41;;;;;;;3.30;2.40;;;;;;;22.16;34.47;98556.60;1935496;73;28085;-63
2021/12/09 09:04:30;;;;;;;3.27;2.40;;;;;;;22.15;34.47;98561.23;1929268;71;28101;-64
2021/12/09 09:07:19;;;;;;;3.33;2.40;;;;;;;22.14;34.48;98562.34;1946397;73;27999;-64
2021/12/09 09:10:11;;;;;;;4.00;2.42;;;;;;;22.15;34.50;98585.86;1938477;72;28009;-64
2021/12/09 09:13:00;;;;;;;6.17;2.37;;;;;;;22.15;34.42;98574.12;1929989;72;28627;-63
2021/12/09 09:15:49;;;;;;;3.75;2.35;;;;;;;22.17;34.40;98582.89;1966631;71;27884;-64
2021/12/09 09:18:39;;;;;;;2.75;2.12;;;;;;;22.14;34.48;98579.28;1959250;71;28092;-63
2021/12/09 09:21:29;;;;;;;4.10;2.60;;;;;;;22.11;34.45;98580.61;1948851;72;28038;-63
2021/12/09 09:24:18;;;;;;;2.40;2.20;;;;;;;22.10;34.46;98582.25;1950441;72;28103;-64
2021/12/09 09:27:07;;;;;;;2.20;2.00;;;;;;;22.11;34.43;98580.61;1932719;73;28140;-63
2021/12/09 09:29:56;;;;;;;3.12;2.37;;;;;;;22.10;34.39;98591.25;1956434;71;27951;-63
2021/12/09 09:32:46;;;;;;;3.15;2.77;;;;;;;22.10;34.41;98589.09;1961281;71;28066;-63
2021/12/09 09:35:35;;;;;;;3.20;2.90;;;;;;;22.08;34.36;98586.58;1963199;72;28007;-65
2021/12/09 09:38:25;;;;;;;2.70;2.50;;;;;;;22.11;34.34;98587.98;1936619;73;28014;-63
2021/12/09 09:41:17;;;;;;;2.57;2.37;;;;;;;22.08;34.32;98594.78;1943343;72;28149;-64
2021/12/09 09:44:17;;;;;;;2.60;2.10;;;;;;;22.10;34.32;98593.19;1914723;73;28192;-63
2021/12/09 09:47:05;;;;;;;2.65;2.20;;;;;;;22.08;34.33;98592.62;1936361;73;28117;-63
2021/12/09 09:49:55;;;;;;;3.00;2.20;;;;;;;22.06;34.34;98594.75;1908387;73;28026;-64
2021/12/09 09:52:45;;;;;;;2.72;2.40;;;;;;;22.05;34.39;98591.75;1925599;73;28165;-64
2021/12/09 09:55:33;;;;;;;2.40;2.00;;;;;;;22.03;34.39;98593.38;1902086;75;28157;-65
2021/12/09 09:58:22;;;;;;;2.95;2.00;;;;;;;22.04;34.36;98608.69;1902726;75;28077;-64
2021/12/09 10:01:10;;;;;;;4.75;3.90;;;;;;;22.03;34.36;98616.05;1910630;73;28259;-63
2021/12/09 10:04:10;;;;;;;4.03;3.62;;;;;;;22.02;34.20;98608.12;1934348;73;28314;-64
2021/12/09 10:06:50;;;;;;;4.97;4.12;;;;;;;22.01;34.16;98609.19;1934451;73;28117;-63
2021/12/09 10:09:39;;;;;;;4.08;2.83;;;;;;;22.01;34.16;98597.71;1908365;74;28115;-64
2021/12/09 10:12:28;;;;;;;4.03;2.90;;;;;;;22.01;34.19;98614.12;1902380;75;28175;-64
2021/12/09 10:15:20;;;;;;;3.30;2.80;;;;;;;21.99;34.24;98613.55;1911321;73;28631;-64
2021/12/09 10:18:11;;;;;;;2.92;2.30;;;;;;;21.99;34.26;98617.65;1910440;73;28655;-64
2021/12/09 10:21:01;;;;;;;4.17;2.42;;;;;;;21.99;34.38;98605.34;1922229;73;28527;-65
2021/12/09 10:23:51;;;;;;;2.33;2.02;;;;;;;21.98;34.34;98610.51;1902638;75;28109;-65
2021/12/09 10:26:42;;;;;;;3.42;2.50;;;;;;;22.00;34.42;98602.91;1925033;73;28091;-64
2021/12/09 10:29:38;;;;;;;2.70;2.50;;;;;;;22.01;34.39;98600.98;1902547;75;28149;-64
2021/12/09 10:32:28;;;;;;;3.72;2.75;;;;;;;22.00;34.38;98596.61;1902402;75;28187;-64
2021/12/09 10:35:21;;;;;;;3.40;3.10;;;;;;;21.99;34.42;98586.20;1901932;75;28104;-63
2021/12/09 10:38:11;;;;;;;3.00;2.80;;;;;;;22.02;34.39;98583.50;1925435;73;28562;-64
2021/12/09 10:41:00;;;;;;;4.28;3.22;;;;;;;22.00;34.33;98572.83;1902463;75;28110;-64
2021/12/09 10:43:51;;;;;;;3.08;2.77;;;;;;;22.01;34.34;98579.94;1911322;72;28123;-64
2021/12/09 10:47:05;;;;;;;3.30;3.00;;;;;;;21.98;34.36;98579.06;1979131;72;30974;-63
2021/12/09 10:50:03;;;;;;;6.17;4.22;;;;;;;22.00;34.33;98581.56;1943613;73;28091;-63
2021/12/09 10:52:48;;;;;;;7.00;5.03;;;;;;;22.00;34.12;98584.30;1961088;72;27950;-64
2021/12/09 10:55:37;;;;;;;5.17;4.58;;;;;;;21.99;34.20;98574.43;1961141;72;27926;-64
2021/12/09 10:58:31;;;;;;;5.47;4.30;;;;;;;22.01;34.13;98574.47;1943583;73;28163;-64
2021/12/09 11:01:22;;;;;;;4.37;3.97;;;;;;;22.00;34.24;98575.56;1938754;73;28503;-63
2021/12/09 11:04:10;;;;;;;4.20;3.62;;;;;;;22.02;34.19;98565.73;1953937;72;28142;-64
2021/12/09 11:06:58;;;;;;;4.45;3.83;;;;;;;22.06;34.20;98555.93;1943770;73;30017;-64
2021/12/09 11:09:47;;;;;;;3.98;3.55;;;;;;;22.07;34.20;98556.77;1943305;73;28020;-65
2021/12/09 11:12:35;;;;;;;3.40;3.12;;;;;;;22.06;34.19;98555.09;1958272;72;28017;-64
2021/12/09 11:15:45;;;;;;;4.40;3.60;;;;;;;22.09;34.11;98555.97;1946241;72;28043;-64
2021/12/09 11:18:38;;;;;;;3.90;3.60;;;;;;;22.10;34.12;98567.20;1966687;72;28078;-65
2021/12/09 11:21:30;;;;;;;3.73;3.40;;;;;;;22.07;34.06;98560.86;1943410;73;28009;-64
2021/12/09 11:24:21;;;;;;;4.07;3.70;;;;;;;22.07;34.13;98563.60;1943594;73;28088;-64
2021/12/09 11:27:15;;;;;;;4.85;3.90;;;;;;;22.04;34.08;98558.09;1943249;73;28035;-64
2021/12/09 11:30:11;;;;;;;4.30;3.90;;;;;;;22.05;34.08;98558.39;1967825;72;28060;-64
2021/12/09 11:33:02;;;;;;;4.47;3.90;;;;;;;22.04;34.08;98552.63;1949243;72;28015;-65
2021/12/09 11:35:51;;;;;;;4.87;4.47;;;;;;;22.08;33.96;98561.16;1954052;72;28131;-65
2021/12/09 11:39:06;;;;;;;5.62;5.12;;;;;;;22.06;33.99;98561.94;1898828;75;28140;-64
2021/12/09 11:41:50;;;;;;;5.17;4.75;;;;;;;22.04;33.89;98558.09;1876969;75;28110;-64
2021/12/09 11:44:39;;;;;;;6.17;5.28;;;;;;;22.03;33.90;98549.05;1920302;74;28110;-65
2021/12/09 11:47:28;;;;;;;4.95;4.45;;;;;;;22.06;33.86;98555.09;1932060;73;28000;-63
2021/12/09 11:50:22;;;;;;;5.85;5.25;;;;;;;22.04;33.88;98548.52;1932721;73;28046;-64
2021/12/09 11:53:13;;;;;;;6.90;5.62;;;;;;;22.06;33.88;98542.79;1949221;72;27949;-64
2021/12/09 11:56:08;;;;;;;6.15;5.55;;;;;;;22.04;33.82;98544.42;1931544;74;28020;-65
2021/12/09 11:59:22;;;;;;;7.55;5.50;;;;;;;22.03;33.85;98538.12;1931288;74;28168;-64
2021/12/09 12:11:31;;;;;;;6.35;5.50;;;;;;;21.96;33.98;98556.62;1933765;73;28016;-63
2021/12/09 12:14:36;;;;;;;6.47;5.80;;;;;;;21.97;33.95;98558.82;1933269;73;28089;-64
2021/12/09 12:17:42;;;;;;;6.47;5.62;;;;;;;22.00;33.89;98548.22;1931608;74;27990;-64
2021/12/09 12:20:39;;;;;;;6.60;5.50;;;;;;;21.98;33.95;98548.98;1943547;72;27940;-63
2021/12/09 12:33:09;;;;;;;6.37;5.40;;;;;;;21.96;33.97;98529.84;1900507;72;28422;-63
2021/12/09 12:36:20;;;;;;;5.87;5.30;;;;;;;21.96;33.94;98541.58;1943047;72;28020;-63
2021/12/09 12:39:13;;;;;;;5.72;5.12;;;;;;;21.98;33.94;98537.25;1933107;73;28077;-65
2021/12/09 12:42:09;;;;;;;6.15;5.10;;;;;;;21.97;34.00;98539.67;1951370;72;28130;-65
2021/12/09 12:51:47;;;;;;;7.45;6.22;;;;;;;21.92;33.72;98545.08;1953524;72;28077;-65
2021/12/09 12:54:45;;;;;;;7.83;6.92;;;;;;;21.91;33.69;98531.94;1933639;73;28047;-63
2021/12/09 12:57:51;;;;;;;8.80;6.80;;;;;;;21.88;33.63;98535.73;1955133;72;28061;-64
2021/12/09 13:00:46;;;;;;;9.38;7.20;;;;;;;21.89;33.59;98534.67;1955098;72;28130;-64
2021/12/09 13:03:40;;;;;;;9.38;7.10;;;;;;;21.90;33.60;98531.67;1931810;73;28205;-63
2021/12/09 13:06:48;;;;;;;9.48;7.87;;;;;;;21.90;33.58;98537.14;1933282;73;28048;-62
2021/12/09 13:09:48;;;;;;;10.40;6.97;;;;;;;21.94;33.56;98536.08;1845338;77;28126;-63
2021/12/09 13:12:38;;;;;;;6.90;6.13;;;;;;;21.90;33.58;98538.50;1966632;72;28064;-63
2021/12/09 13:15:33;;;;;;;9.00;7.00;;;;;;;21.87;33.68;98517.13;1935364;72;28014;-64
2021/12/09 13:18:31;;;;;;;8.88;7.42;;;;;;;21.87;33.68;98517.13;1934117;73;28055;-63
2021/12/09 13:21:45;;;;;;;9.30;7.05;;;;;;;21.90;33.54;98528.94;1876777;73;38162;-63
2021/12/09 13:24:43;;;;;;;8.68;6.90;;;;;;;21.90;33.52;98515.27;1932486;73;28129;-63
2021/12/09 13:27:57;;;;;;;8.58;6.70;;;;;;;21.89;33.59;98509.49;1933642;73;28084;-63
2021/12/09 13:31:05;;;;;;;8.28;6.70;;;;;;;21.88;33.58;98515.23;1931771;74;28017;-63
2021/12/09 13:34:06;;;;;;;8.18;6.40;;;;;;;21.88;33.54;98509.23;1924673;74;28130;-64
2021/12/09 13:40:05;;;;;;;8.43;6.37;;;;;;;21.87;33.62;98500.72;1911732;72;28112;-63
2021/12/09 13:48:41;;;;;;;7.10;5.97;;;;;;;21.84;33.63;98488.92;1933461;73;28067;-64
2021/12/09 13:52:02;;;;;;;7.60;6.03;;;;;;;21.85;33.67;98487.85;1944053;72;28031;-64
2021/12/09 13:57:14;;;;;;;7.28;6.00;;;;;;;21.83;33.67;98485.88;1933592;73;28425;-64
2021/12/09 14:00:08;;;;;;;7.85;6.22;;;;;;;21.83;33.71;98479.58;1933537;73;28507;-63
2021/12/09 14:03:08;;;;;;;7.30;5.95;;;;;;;21.86;33.56;98485.42;1948541;72;27948;-64